Time;durP1;ratioP1;P1;durP2;ratioP2;P2;SDS_P1;SDS_P2;PMS_P1;PMS_P2;Temp;Humidity;BMP_temperature;BMP_pressure;BME280_temperature;BME280_humidity;BME280_pressure;Samples;Min_cycle;Max_cycle;Signal;HPM_P1;HPM_P2
2022/03/31 00:00:41;;;;;;;12.18;8.00;;;12.20;1.00;;;;;;5013443;28;20045;-95
2022/03/31 00:03:15;;;;;;;15.68;7.68;;;12.20;1.00;;;;;;5011793;28;20116;-96
2022/03/31 00:05:41;;;;;;;13.43;7.90;;;12.20;1.00;;;;;;5016327;28;20040;-95
2022/03/31 00:08:13;;;;;;;13.70;6.88;;;12.10;1.00;;;;;;5015901;28;20044;-96
2022/03/31 00:10:52;;;;;;;14.18;6.85;;;12.10;1.00;;;;;;5018172;28;20033;-96
2022/03/31 00:13:21;;;;;;;14.05;7.10;;;12.20;1.00;;;;;;5017013;28;20034;-96
2022/03/31 00:15:47;;;;;;;17.25;7.20;;;12.20;1.00;;;;;;5017554;28;20029;-96
2022/03/31 00:18:15;;;;;;;15.70;7.72;;;12.00;1.00;;;;;;5016737;28;20041;-96
2022/03/31 00:20:40;;;;;;;12.70;7.15;;;12.10;1.00;;;;;;5016792;28;20022;-96
2022/03/31 00:23:06;;;;;;;17.65;7.80;;;12.00;1.00;;;;;;5016888;28;20033;-96
2022/03/31 00:25:32;;;;;;;15.35;7.65;;;12.00;1.00;;;;;;5017049;28;20083;-95
2022/03/31 00:27:58;;;;;;;14.93;7.53;;;12.10;1.00;;;;;;5015849;28;20123;-96
2022/03/31 00:30:25;;;;;;;14.10;8.40;;;12.00;1.00;;;;;;5015262;28;20034;-95
2022/03/31 00:32:52;;;;;;;15.43;8.00;;;12.20;1.00;;;;;;5015532;28;20110;-96
2022/03/31 00:35:18;;;;;;;17.30;8.73;;;12.20;1.00;;;;;;5016343;28;20069;-96
2022/03/31 00:37:45;;;;;;;15.18;8.35;;;12.20;1.00;;;;;;5015407;28;20028;-96
2022/03/31 00:40:15;;;;;;;18.52;8.57;;;12.10;1.00;;;;;;5016397;28;20121;-95
2022/03/31 00:42:47;;;;;;;12.50;8.07;;;12.10;1.00;;;;;;5016621;28;20037;-95
2022/03/31 00:45:23;;;;;;;13.52;8.98;;;12.20;1.00;;;;;;5016489;28;20037;-95
2022/03/31 00:47:50;;;;;;;13.63;9.10;;;12.10;1.00;;;;;;5016503;28;20024;-96
2022/03/31 00:50:16;;;;;;;18.45;8.73;;;12.00;1.00;;;;;;5016451;28;20535;-95
2022/03/31 00:52:42;;;;;;;13.80;8.60;;;12.00;1.00;;;;;;5016614;28;20022;-96
2022/03/31 00:55:10;;;;;;;14.40;8.23;;;11.90;1.00;;;;;;5016714;28;20030;-96
2022/03/31 00:57:36;;;;;;;18.80;9.57;;;11.90;1.00;;;;;;5016210;28;20018;-96
2022/03/31 01:00:05;;;;;;;15.88;9.07;;;12.00;1.00;;;;;;5016804;28;20032;-96
2022/03/31 01:02:31;;;;;;;16.73;8.90;;;12.00;1.00;;;;;;5014868;28;20030;-96
2022/03/31 01:05:02;;;;;;;17.52;8.43;;;12.00;1.00;;;;;;5015985;28;20501;-96
2022/03/31 01:07:28;;;;;;;17.25;9.10;;;12.00;1.00;;;;;;5015950;28;20034;-96
2022/03/31 01:09:56;;;;;;;13.25;8.82;;;11.90;1.00;;;;;;5016310;28;20496;-96
2022/03/31 01:12:22;;;;;;;15.68;9.35;;;11.80;1.00;;;;;;5015233;28;20017;-96
2022/03/31 01:15:08;;;;;;;15.43;8.50;;;11.90;1.00;;;;;;5015058;28;20034;-96
2022/03/31 01:17:39;;;;;;;13.82;8.90;;;12.00;1.00;;;;;;5004505;28;20030;-95
2022/03/31 01:20:07;;;;;;;17.00;9.73;;;12.00;1.00;;;;;;5015730;28;20040;-95
2022/03/31 01:22:33;;;;;;;19.20;9.50;;;12.00;1.00;;;;;;5016451;28;20026;-96
2022/03/31 01:25:00;;;;;;;15.30;9.00;;;12.10;1.00;;;;;;5015670;28;20087;-96
2022/03/31 01:27:26;;;;;;;15.57;9.40;;;12.00;1.00;;;;;;5015837;28;20030;-96
2022/03/31 01:29:53;;;;;;;16.35;9.07;;;12.00;1.00;;;;;;5015153;28;20517;-96
2022/03/31 01:32:19;;;;;;;17.10;9.07;;;12.00;1.00;;;;;;5015420;28;20042;-96
2022/03/31 01:34:45;;;;;;;15.65;9.20;;;12.10;1.00;;;;;;5015605;28;20576;-96
2022/03/31 01:37:12;;;;;;;18.50;9.80;;;12.00;1.00;;;;;;5014818;28;20046;-96
2022/03/31 01:39:38;;;;;;;14.68;9.30;;;12.10;1.00;;;;;;5016238;28;20021;-96
2022/03/31 01:42:05;;;;;;;16.75;9.40;;;12.10;1.00;;;;;;5014786;28;20026;-96
2022/03/31 01:44:31;;;;;;;14.25;9.32;;;11.90;1.00;;;;;;5016096;28;20041;-96
2022/03/31 01:46:57;;;;;;;17.98;9.52;;;11.80;1.00;;;;;;5009532;28;20034;-96
2022/03/31 01:49:23;;;;;;;18.38;9.70;;;11.80;1.00;;;;;;5015215;28;20424;-96
2022/03/31 01:51:48;;;;;;;14.40;8.60;;;11.70;1.00;;;;;;5015655;28;20029;-96
2022/03/31 01:54:14;;;;;;;14.38;9.02;;;11.80;1.00;;;;;;5014939;28;20121;-96
2022/03/31 01:56:44;;;;;;;17.38;9.60;;;11.70;1.00;;;;;;5014737;28;20026;-96
2022/03/31 01:59:10;;;;;;;14.30;9.60;;;11.80;1.00;;;;;;5015082;28;20026;-96
2022/03/31 02:01:38;;;;;;;16.65;9.43;;;11.70;1.00;;;;;;5013899;28;20029;-95
2022/03/31 02:04:04;;;;;;;15.60;9.88;;;11.80;1.00;;;;;;5015304;28;20116;-96
2022/03/31 02:06:29;;;;;;;15.18;9.57;;;11.70;1.00;;;;;;5015224;28;20025;-96
2022/03/31 02:08:56;;;;;;;20.10;10.15;;;11.70;1.00;;;;;;5013591;28;20037;-96
2022/03/31 02:11:22;;;;;;;18.63;10.10;;;11.70;1.00;;;;;;5014503;28;20018;-96
2022/03/31 02:13:48;;;;;;;22.50;10.20;;;11.80;1.00;;;;;;5013570;28;20394;-96
2022/03/31 02:16:14;;;;;;;17.63;9.82;;;11.80;1.00;;;;;;5014535;28;20036;-96
2022/03/31 02:18:40;;;;;;;18.42;9.35;;;11.80;1.00;;;;;;5014342;28;20030;-96
2022/03/31 02:21:06;;;;;;;16.88;9.63;;;11.80;1.00;;;;;;5013664;28;20402;-96
2022/03/31 02:23:31;;;;;;;17.58;9.82;;;11.80;1.00;;;;;;5013518;28;20072;-96
2022/03/31 02:25:58;;;;;;;18.15;9.63;;;11.70;1.00;;;;;;5013380;28;20030;-96
2022/03/31 02:28:23;;;;;;;19.90;10.13;;;11.80;1.00;;;;;;5012299;28;20478;-95
2022/03/31 02:30:49;;;;;;;18.75;10.68;;;11.80;1.00;;;;;;5014318;28;20030;-96
2022/03/31 02:33:14;;;;;;;16.25;9.27;;;11.80;1.00;;;;;;5014571;28;20034;-96
2022/03/31 02:35:40;;;;;;;17.23;9.88;;;11.80;1.00;;;;;;5014142;28;20505;-96
2022/03/31 02:38:06;;;;;;;20.10;9.48;;;11.80;1.00;;;;;;5014366;28;20033;-96
2022/03/31 02:40:31;;;;;;;15.00;9.55;;;11.80;1.00;;;;;;5013286;28;20033;-96
2022/03/31 02:42:57;;;;;;;17.08;9.23;;;11.80;1.00;;;;;;5014426;28;20393;-96
2022/03/31 02:45:23;;;;;;;18.02;9.50;;;11.80;1.00;;;;;;5013796;28;20038;-96
2022/03/31 02:47:49;;;;;;;18.73;10.05;;;11.80;1.00;;;;;;5013179;28;20018;-96
2022/03/31 02:50:17;;;;;;;13.98;8.50;;;11.80;1.00;;;;;;5013183;28;20123;-96
2022/03/31 02:55:28;;;;;;;20.52;10.05;;;11.70;1.00;;;;;;4999957;28;20032;-96
2022/03/31 02:58:04;;;;;;;16.55;9.38;;;11.60;1.00;;;;;;5013653;28;20030;-96
2022/03/31 03:00:32;;;;;;;15.85;9.45;;;11.70;1.00;;;;;;5014156;28;20037;-96
2022/03/31 03:02:59;;;;;;;16.42;9.68;;;11.70;1.00;;;;;;5013757;28;20402;-96
2022/03/31 03:05:25;;;;;;;16.77;9.45;;;11.60;1.00;;;;;;5013124;28;20037;-95
2022/03/31 03:07:51;;;;;;;19.65;9.18;;;11.60;1.00;;;;;;5013825;28;20095;-96
2022/03/31 03:10:17;;;;;;;18.85;9.77;;;11.60;1.00;;;;;;5012738;28;20076;-96
2022/03/31 03:12:42;;;;;;;17.02;9.85;;;11.50;1.00;;;;;;5013234;28;20030;-95
2022/03/31 03:15:09;;;;;;;18.98;11.15;;;11.70;1.00;;;;;;5012986;28;20482;-96
2022/03/31 03:17:39;;;;;;;16.92;9.82;;;11.60;1.00;;;;;;5013677;28;20049;-96
2022/03/31 03:20:05;;;;;;;19.30;9.68;;;11.70;1.00;;;;;;5012688;28;20117;-96
2022/03/31 03:22:32;;;;;;;17.90;9.57;;;11.60;1.00;;;;;;5013767;28;20492;-96
2022/03/31 03:24:58;;;;;;;22.50;11.02;;;11.60;1.00;;;;;;5013855;28;20084;-96
2022/03/31 03:27:25;;;;;;;16.95;10.23;;;11.60;1.00;;;;;;5014298;28;20104;-96
2022/03/31 03:29:51;;;;;;;18.70;10.27;;;11.60;1.00;;;;;;5013621;28;20064;-96
2022/03/31 03:32:17;;;;;;;17.23;9.07;;;11.50;1.00;;;;;;5013326;28;20028;-96
2022/03/31 03:34:43;;;;;;;17.42;9.73;;;11.40;1.00;;;;;;5013249;28;20054;-96
2022/03/31 03:37:09;;;;;;;16.88;10.00;;;11.40;1.00;;;;;;5013805;28;20018;-96
2022/03/31 03:39:35;;;;;;;15.27;9.82;;;11.40;1.00;;;;;;5011996;28;20026;-96
2022/03/31 03:42:02;;;;;;;19.10;10.80;;;11.40;1.00;;;;;;5013787;28;20033;-96
2022/03/31 03:44:27;;;;;;;18.20;10.40;;;11.40;1.00;;;;;;5013023;28;20030;-96
2022/03/31 03:46:53;;;;;;;20.13;10.98;;;11.30;1.00;;;;;;5012018;28;20029;-96
2022/03/31 03:49:19;;;;;;;17.48;10.65;;;11.30;1.00;;;;;;5012455;28;20033;-96
2022/03/31 03:51:45;;;;;;;16.77;10.05;;;11.20;1.00;;;;;;5013376;28;20254;-96
2022/03/31 03:54:11;;;;;;;15.40;9.95;;;11.30;1.00;;;;;;5013503;28;20096;-96
2022/03/31 03:56:38;;;;;;;21.80;10.55;;;11.40;1.00;;;;;;5012934;28;20028;-96
2022/03/31 03:59:04;;;;;;;20.92;11.85;;;11.40;1.00;;;;;;5013054;28;20034;-96
2022/03/31 04:01:30;;;;;;;17.52;10.65;;;11.50;1.00;;;;;;5013231;28;20121;-96
2022/03/31 04:03:57;;;;;;;16.92;10.90;;;11.50;1.00;;;;;;5013517;28;20068;-96
2022/03/31 04:06:23;;;;;;;21.63;11.43;;;11.50;1.00;;;;;;5012354;28;20037;-96
2022/03/31 04:08:48;;;;;;;18.65;11.93;;;11.60;1.00;;;;;;5012034;28;20398;-96
2022/03/31 04:11:14;;;;;;;18.77;11.63;;;11.60;1.00;;;;;;5011715;28;20537;-96
2022/03/31 04:13:40;;;;;;;17.02;11.77;;;11.50;1.00;;;;;;5013040;28;20045;-96
2022/03/31 04:16:05;;;;;;;22.30;11.88;;;11.50;1.00;;;;;;5013123;28;20470;-96
2022/03/31 04:18:32;;;;;;;19.05;11.48;;;11.60;1.00;;;;;;5012612;28;20026;-96
2022/03/31 04:21:01;;;;;;;18.15;11.65;;;11.60;1.00;;;;;;5012774;28;20517;-96
2022/03/31 04:23:26;;;;;;;17.42;11.88;;;11.60;1.00;;;;;;5013070;28;20034;-96
2022/03/31 04:25:52;;;;;;;20.88;12.80;;;11.50;1.00;;;;;;5012093;28;20457;-96
2022/03/31 04:28:18;;;;;;;19.35;12.25;;;11.40;1.00;;;;;;5013432;28;20053;-96
2022/03/31 04:30:44;;;;;;;18.83;11.70;;;11.60;1.00;;;;;;5012513;28;20057;-96
2022/03/31 04:33:10;;;;;;;18.73;12.45;;;11.70;1.00;;;;;;5011871;28;20033;-96
2022/03/31 04:35:36;;;;;;;17.17;11.77;;;11.70;1.00;;;;;;5012699;28;20085;-96
2022/03/31 04:38:05;;;;;;;17.42;12.32;;;11.70;1.00;;;;;;5013183;28;20030;-96
2022/03/31 04:40:32;;;;;;;19.85;12.45;;;11.50;1.00;;;;;;5011716;28;20030;-96
2022/03/31 04:42:58;;;;;;;20.30;12.70;;;11.50;1.00;;;;;;5012242;28;20026;-96
2022/03/31 04:45:23;;;;;;;16.00;12.43;;;11.60;1.00;;;;;;5011983;28;20037;-96
2022/03/31 04:47:49;;;;;;;21.88;13.48;;;11.50;1.00;;;;;;5013106;28;20104;-96
2022/03/31 04:50:15;;;;;;;21.30;13.30;;;11.40;1.00;;;;;;5013494;28;20113;-96
2022/03/31 04:52:42;;;;;;;22.50;14.32;;;11.70;1.00;;;;;;5015180;28;20086;-96
2022/03/31 04:55:08;;;;;;;20.20;14.32;;;11.40;1.00;;;;;;5016559;28;20026;-95
2022/03/31 04:57:34;;;;;;;22.35;13.50;;;11.50;1.00;;;;;;5015646;28;20032;-96
2022/03/31 05:00:00;;;;;;;22.45;13.63;;;11.60;1.00;;;;;;5016693;28;20116;-96
2022/03/31 05:02:26;;;;;;;21.23;13.65;;;11.60;1.00;;;;;;5016373;28;20482;-96
2022/03/31 05:04:51;;;;;;;22.17;14.35;;;11.60;1.00;;;;;;5015029;28;20033;-96
2022/03/31 05:07:18;;;;;;;23.52;13.32;;;11.50;1.00;;;;;;5015276;28;20394;-96
2022/03/31 05:09:45;;;;;;;21.92;13.73;;;11.50;1.00;;;;;;5017462;28;20391;-96
2022/03/31 05:12:12;;;;;;;22.38;13.85;;;11.70;1.00;;;;;;5014367;28;20045;-81
2022/03/31 05:14:38;;;;;;;20.75;13.73;;;11.80;1.00;;;;;;5013875;28;20030;-81
2022/03/31 05:17:05;;;;;;;25.33;13.30;;;11.70;1.00;;;;;;5013657;28;20037;-81
2022/03/31 05:19:31;;;;;;;20.83;13.40;;;11.70;1.00;;;;;;5013676;28;20100;-80
2022/03/31 05:21:57;;;;;;;19.73;13.20;;;11.70;1.00;;;;;;5014427;28;20060;-80
2022/03/31 05:24:23;;;;;;;25.55;13.18;;;11.80;1.00;;;;;;5014135;28;20026;-81
2022/03/31 05:26:52;;;;;;;26.95;13.68;;;11.60;1.00;;;;;;5013883;28;20572;-80
2022/03/31 05:29:18;;;;;;;25.48;14.18;;;11.70;1.00;;;;;;5013630;28;20040;-80
2022/03/31 05:31:44;;;;;;;25.30;14.35;;;11.50;1.00;;;;;;5013736;28;20108;-81
2022/03/31 05:34:10;;;;;;;23.40;13.32;;;11.50;1.00;;;;;;5013619;28;20132;-80
2022/03/31 05:36:36;;;;;;;23.73;13.75;;;11.70;1.00;;;;;;5014297;28;20498;-81
2022/03/31 05:39:03;;;;;;;22.50;13.30;;;11.70;1.00;;;;;;5013296;28;20045;-80
2022/03/31 05:41:28;;;;;;;26.55;14.07;;;11.60;1.00;;;;;;5013465;28;20111;-81
2022/03/31 05:43:55;;;;;;;21.73;14.52;;;11.50;1.00;;;;;;5013162;28;20081;-80
2022/03/31 05:46:21;;;;;;;25.90;13.95;;;11.40;1.00;;;;;;5013194;28;20033;-80
2022/03/31 05:48:47;;;;;;;24.08;15.23;;;11.40;1.00;;;;;;5010023;28;20025;-80
2022/03/31 05:51:13;;;;;;;21.58;14.23;;;11.50;1.00;;;;;;5013406;28;20034;-80
2022/03/31 05:53:38;;;;;;;23.80;14.60;;;11.60;1.00;;;;;;5013027;28;20083;-81
2022/03/31 05:56:04;;;;;;;23.85;14.07;;;11.40;1.00;;;;;;5012894;28;20032;-80
2022/03/31 05:58:30;;;;;;;26.70;15.43;;;11.40;1.00;;;;;;5012968;28;20112;-80
2022/03/31 06:00:56;;;;;;;25.45;14.80;;;11.80;1.00;;;;;;5013510;28;20038;-81
2022/03/31 06:03:23;;;;;;;23.38;15.13;;;11.70;1.00;;;;;;5013159;28;20030;-81
2022/03/31 06:05:49;;;;;;;28.65;15.45;;;11.60;1.00;;;;;;5013156;28;20034;-83
2022/03/31 06:08:17;;;;;;;24.85;14.60;;;11.60;1.00;;;;;;5013279;28;20108;-81
2022/03/31 06:10:45;;;;;;;23.83;13.80;;;11.60;1.00;;;;;;5012978;28;20030;-82
2022/03/31 06:13:12;;;;;;;20.92;13.35;;;11.40;1.00;;;;;;5013407;28;20033;-81
2022/03/31 06:15:38;;;;;;;22.60;13.80;;;11.60;1.00;;;;;;5012904;28;20022;-81
2022/03/31 06:18:06;;;;;;;21.13;13.80;;;11.50;1.00;;;;;;5012599;28;20077;-81
2022/03/31 06:20:34;;;;;;;18.90;13.35;;;11.40;1.00;;;;;;5012606;28;20057;-82
2022/03/31 06:23:00;;;;;;;24.27;14.25;;;11.60;1.00;;;;;;5013325;28;20022;-81
2022/03/31 06:25:26;;;;;;;24.38;14.50;;;11.60;1.00;;;;;;5012577;28;20061;-81
2022/03/31 06:27:52;;;;;;;22.23;13.98;;;11.60;1.00;;;;;;5012978;28;20030;-82
2022/03/31 06:30:18;;;;;;;23.15;14.23;;;11.60;1.00;;;;;;5012386;28;20080;-82
2022/03/31 06:32:44;;;;;;;21.92;14.57;;;11.60;1.00;;;;;;5012726;28;20023;-82
2022/03/31 06:35:14;;;;;;;24.60;13.80;;;11.40;1.00;;;;;;5012754;28;20514;-82
2022/03/31 06:37:40;;;;;;;24.08;15.52;;;11.50;1.00;;;;;;5012409;28;20521;-81
2022/03/31 06:40:07;;;;;;;24.83;15.30;;;11.50;1.00;;;;;;5012320;28;20038;-82
2022/03/31 06:42:32;;;;;;;25.77;14.55;;;11.50;1.00;;;;;;5011762;28;20509;-82
2022/03/31 06:44:58;;;;;;;24.88;14.05;;;11.60;1.00;;;;;;5011841;28;20034;-82
2022/03/31 06:47:24;;;;;;;21.20;14.02;;;11.70;1.00;;;;;;5012016;28;20036;-82
2022/03/31 06:49:49;;;;;;;23.35;14.52;;;11.50;1.00;;;;;;5012330;28;20049;-82
2022/03/31 06:52:15;;;;;;;24.83;14.73;;;11.70;1.00;;;;;;5012659;28;20084;-81
2022/03/31 06:54:41;;;;;;;27.83;15.20;;;11.60;1.00;;;;;;5011858;28;20030;-82
2022/03/31 06:57:07;;;;;;;23.13;14.98;;;11.60;1.00;;;;;;5012035;28;20482;-82
2022/03/31 06:59:33;;;;;;;24.38;14.52;;;11.50;1.00;;;;;;5011996;28;20045;-82
2022/03/31 07:01:59;;;;;;;23.48;15.27;;;11.70;1.00;;;;;;5012012;28;20033;-79
2022/03/31 07:04:25;;;;;;;22.65;13.52;;;11.60;1.00;;;;;;5011944;28;20080;-81
2022/03/31 07:06:51;;;;;;;27.70;14.95;;;11.80;1.00;;;;;;5012587;28;20034;-79
2022/03/31 07:09:17;;;;;;;25.42;14.73;;;11.60;1.00;;;;;;5011812;28;20101;-78
2022/03/31 07:11:42;;;;;;;25.42;14.95;;;11.80;1.00;;;;;;5012513;28;20038;-87
2022/03/31 07:14:08;;;;;;;23.02;14.85;;;11.90;1.00;;;;;;5011422;28;20030;-87
2022/03/31 07:16:34;;;;;;;22.10;14.25;;;12.20;1.00;;;;;;5013214;28;20037;-86
2022/03/31 07:19:01;;;;;;;26.85;15.07;;;12.40;1.00;;;;;;5012438;28;20120;-85
2022/03/31 07:21:27;;;;;;;22.30;14.27;;;12.40;1.00;;;;;;5011673;28;20025;-86
2022/03/31 07:23:53;;;;;;;24.13;15.27;;;12.50;1.00;;;;;;5012601;28;20390;-86
2022/03/31 07:26:19;;;;;;;26.73;14.73;;;12.80;1.00;;;;;;5010541;28;20572;-86
2022/03/31 07:28:45;;;;;;;24.92;15.82;;;13.10;1.00;;;;;;5012129;28;20026;-86
2022/03/31 07:31:11;;;;;;;26.42;14.20;;;13.00;1.00;;;;;;5012587;28;23485;-86
2022/03/31 07:33:36;;;;;;;25.70;13.73;;;13.20;1.00;;;;;;5012648;28;20398;-86
2022/03/31 07:36:03;;;;;;;21.08;14.25;;;13.20;1.00;;;;;;5012412;28;20088;-86
2022/03/31 07:38:28;;;;;;;19.05;13.82;;;12.90;1.00;;;;;;5011931;28;20022;-86
2022/03/31 07:40:55;;;;;;;22.98;14.43;;;13.10;1.00;;;;;;5012178;28;20029;-86
2022/03/31 07:43:21;;;;;;;23.13;14.77;;;13.20;1.00;;;;;;5012385;28;20045;-85
2022/03/31 07:45:47;;;;;;;56.90;21.60;;;13.20;1.00;;;;;;5012424;28;20065;-86
2022/03/31 07:48:15;;;;;;;23.92;14.93;;;13.40;1.00;;;;;;5011917;28;20030;-86
2022/03/31 07:50:42;;;;;;;22.85;14.77;;;13.30;1.00;;;;;;5012493;28;20034;-85
2022/03/31 07:53:10;;;;;;;25.67;14.82;;;13.30;1.00;;;;;;5012272;28;20224;-86
2022/03/31 07:55:36;;;;;;;27.45;15.82;;;13.20;1.00;;;;;;5012068;28;20018;-86
2022/03/31 07:58:02;;;;;;;20.35;14.57;;;13.20;1.00;;;;;;5012056;28;20041;-86
2022/03/31 08:00:29;;;;;;;26.42;15.05;;;13.30;1.00;;;;;;5012464;28;20112;-86
2022/03/31 08:02:55;;;;;;;26.90;15.48;;;13.10;1.00;;;;;;5010869;28;20022;-86
2022/03/31 08:05:27;;;;;;;29.48;15.80;;;13.10;1.00;;;;;;5012267;28;20042;-86
2022/03/31 08:07:53;;;;;;;21.80;15.05;;;13.10;1.00;;;;;;5011875;28;20018;-86
2022/03/31 08:10:19;;;;;;;22.75;14.90;;;13.10;1.00;;;;;;5012181;28;20046;-86
2022/03/31 08:12:45;;;;;;;26.10;14.88;;;13.20;1.00;;;;;;5012184;28;20097;-86
2022/03/31 08:15:15;;;;;;;23.48;15.30;;;13.20;1.00;;;;;;5011650;28;20030;-86
2022/03/31 08:17:41;;;;;;;28.02;15.90;;;13.10;1.00;;;;;;5011689;28;20022;-85
2022/03/31 08:20:10;;;;;;;21.67;14.70;;;13.20;1.00;;;;;;5011913;28;20096;-86
2022/03/31 08:22:38;;;;;;;23.55;15.90;;;13.20;1.00;;;;;;5011829;28;20038;-86
2022/03/31 08:25:06;;;;;;;24.83;15.00;;;13.20;1.00;;;;;;5012644;28;20123;-86
2022/03/31 08:27:32;;;;;;;25.42;15.30;;;13.30;1.00;;;;;;5014023;28;20030;-86
2022/03/31 08:29:58;;;;;;;18.90;13.88;;;13.30;1.00;;;;;;5015547;28;20033;-86
2022/03/31 08:32:24;;;;;;;24.17;14.55;;;13.20;1.00;;;;;;5015603;28;20393;-86
2022/03/31 08:34:50;;;;;;;24.00;14.52;;;13.30;1.00;;;;;;5015762;28;20050;-86
2022/03/31 08:37:15;;;;;;;19.15;12.82;;;13.20;1.00;;;;;;5015831;28;20029;-86
2022/03/31 08:39:41;;;;;;;24.08;13.73;;;13.10;1.00;;;;;;5016016;28;20092;-87
2022/03/31 08:42:08;;;;;;;25.75;15.35;;;12.80;1.00;;;;;;5014679;28;20033;-86
2022/03/31 08:44:36;;;;;;;23.75;14.82;;;12.60;1.00;;;;;;5015138;28;20030;-87
2022/03/31 08:47:02;;;;;;;19.38;11.70;;;12.50;1.00;;;;;;5015567;28;20141;-87
2022/03/31 08:49:29;;;;;;;17.60;10.90;;;12.50;1.00;;;;;;5015336;28;20032;-86
2022/03/31 08:51:55;;;;;;;17.50;11.05;;;12.30;1.00;;;;;;5015997;28;20426;-87
2022/03/31 08:54:21;;;;;;;21.27;12.15;;;12.20;1.00;;;;;;5015615;28;20529;-87
2022/03/31 08:56:47;;;;;;;21.40;14.40;;;12.20;1.00;;;;;;5014764;28;20113;-86
2022/03/31 08:59:13;;;;;;;24.10;14.30;;;12.10;1.00;;;;;;5015043;28;20042;-87
2022/03/31 09:01:39;;;;;;;23.77;13.40;;;12.10;1.00;;;;;;5015750;28;20036;-86
2022/03/31 09:04:05;;;;;;;24.08;15.60;;;12.20;1.00;;;;;;5013914;28;20030;-87
2022/03/31 09:06:31;;;;;;;17.48;12.63;;;12.10;1.00;;;;;;5015932;28;20026;-86
2022/03/31 09:08:58;;;;;;;19.83;12.88;;;12.20;1.00;;;;;;5014883;28;20401;-87
2022/03/31 09:11:35;;;;;;;18.92;12.13;;;12.20;1.00;;;;;;5014791;28;20075;-87
2022/03/31 09:14:04;;;;;;;17.35;10.65;;;12.00;1.00;;;;;;5013909;28;20131;-87
2022/03/31 09:16:35;;;;;;;16.80;11.80;;;12.30;1.00;;;;;;5014957;28;20018;-86
2022/03/31 09:19:05;;;;;;;17.42;10.77;;;12.30;1.00;;;;;;5013502;28;20478;-86
2022/03/31 09:21:31;;;;;;;18.40;10.68;;;12.30;1.00;;;;;;5015684;28;20398;-86
2022/03/31 09:23:58;;;;;;;15.98;10.98;;;12.30;1.00;;;;;;5012785;28;20045;-86
2022/03/31 09:26:27;;;;;;;21.15;12.07;;;12.40;1.00;;;;;;5014729;28;20045;-86
2022/03/31 09:28:54;;;;;;;18.17;11.77;;;12.60;1.00;;;;;;5014533;28;20026;-86
2022/03/31 09:31:24;;;;;;;15.30;10.95;;;12.80;1.00;;;;;;5014515;28;20038;-86
2022/03/31 09:33:55;;;;;;;15.80;10.85;;;12.90;1.00;;;;;;4994336;28;20507;-85
2022/03/31 09:36:24;;;;;;;18.80;10.48;;;13.30;1.00;;;;;;5014436;28;20084;-86
2022/03/31 09:39:07;;;;;;;23.75;11.75;;;13.60;1.00;;;;;;5011955;28;20096;-86
2022/03/31 09:41:35;;;;;;;16.50;10.93;;;13.90;1.00;;;;;;5014543;28;20502;-86
2022/03/31 09:44:05;;;;;;;18.08;10.98;;;14.10;1.00;;;;;;5013249;28;20034;-86
2022/03/31 09:46:33;;;;;;;21.27;11.45;;;14.00;1.00;;;;;;5012914;28;20048;-86
2022/03/31 09:49:09;;;;;;;17.40;10.10;;;14.20;1.00;;;;;;5013991;28;20033;-86
2022/03/31 09:51:35;;;;;;;16.52;11.52;;;15.10;1.00;;;;;;5012846;28;20050;-86
2022/03/31 09:54:01;;;;;;;18.75;11.98;;;16.70;1.00;;;;;;5013349;28;20505;-86
2022/03/31 09:56:27;;;;;;;16.40;11.48;;;17.60;1.00;;;;;;5014260;28;20045;-86
2022/03/31 09:58:56;;;;;;;20.75;12.38;;;17.40;1.00;;;;;;5013883;28;20418;-86
2022/03/31 10:01:23;;;;;;;19.83;12.07;;;18.90;1.00;;;;;;4998629;28;20029;-87
2022/03/31 10:03:49;;;;;;;17.98;12.07;;;19.00;1.00;;;;;;5014758;28;20026;-86
2022/03/31 10:06:16;;;;;;;18.45;12.60;;;19.60;1.00;;;;;;5013654;28;20069;-86
2022/03/31 10:08:44;;;;;;;19.55;13.23;;;19.30;1.00;;;;;;5013549;28;20022;-87
2022/03/31 10:11:11;;;;;;;17.88;14.13;;;19.70;1.00;;;;;;5013995;28;20037;-86
2022/03/31 10:13:43;;;;;;;22.70;14.48;;;19.20;1.00;;;;;;5013697;28;20030;-87
2022/03/31 10:16:13;;;;;;;23.40;16.65;;;18.30;1.00;;;;;;5013765;28;20029;-86
2022/03/31 10:18:40;;;;;;;20.35;15.75;;;17.80;1.00;;;;;;5013836;28;20129;-86
2022/03/31 10:21:06;;;;;;;22.63;16.13;;;17.20;1.00;;;;;;5013700;28;20026;-86
2022/03/31 10:26:27;;;;;;;20.55;14.85;;;15.50;1.00;;;;;;5013412;28;20098;-86
2022/03/31 10:28:55;;;;;;;23.92;17.10;;;15.30;1.00;;;;;;5013651;28;20030;-87
2022/03/31 10:31:20;;;;;;;24.67;17.50;;;14.90;1.00;;;;;;4997542;28;20026;-87
2022/03/31 10:33:52;;;;;;;24.67;17.10;;;15.00;1.00;;;;;;5013761;28;20026;-86
2022/03/31 10:36:19;;;;;;;24.30;17.48;;;15.00;1.00;;;;;;5012028;28;20049;-87
2022/03/31 10:38:58;;;;;;;24.95;16.60;;;15.00;1.00;;;;;;5013441;28;20550;-86
2022/03/31 10:41:35;;;;;;;24.00;17.02;;;14.90;1.00;;;;;;5012290;28;20018;-86
2022/03/31 10:44:13;;;;;;;27.15;16.75;;;14.90;1.00;;;;;;5013024;28;20034;-86
2022/03/31 10:46:40;;;;;;;20.48;15.45;;;16.30;1.00;;;;;;5013531;28;20026;-86
2022/03/31 10:49:13;;;;;;;23.10;15.07;;;18.80;1.00;;;;;;5012891;28;20030;-87
2022/03/31 10:51:43;;;;;;;22.92;14.95;;;20.30;1.00;;;;;;5011771;28;20034;-87
2022/03/31 10:54:22;;;;;;;22.88;14.70;;;19.60;1.00;;;;;;5012894;28;20034;-87
2022/03/31 10:56:48;;;;;;;20.42;14.77;;;18.70;1.00;;;;;;5012887;28;20033;-87
2022/03/31 10:59:15;;;;;;;21.70;14.88;;;17.90;1.00;;;;;;5007784;28;20483;-86
2022/03/31 11:01:41;;;;;;;16.60;11.65;;;17.50;1.00;;;;;;5013246;28;20037;-87
2022/03/31 11:04:09;;;;;;;17.05;10.65;;;16.40;1.00;;;;;;5013220;28;20021;-86
2022/03/31 11:06:52;;;;;;;14.45;10.43;;;15.70;1.00;;;;;;5012764;28;20038;-85
2022/03/31 11:09:31;;;;;;;13.48;9.38;;;15.80;1.00;;;;;;5012882;28;20057;-86
2022/03/31 11:11:59;;;;;;;12.13;8.70;;;15.30;1.00;;;;;;5012567;28;20457;-86
2022/03/31 11:14:25;;;;;;;11.05;8.13;;;15.70;1.00;;;;;;5012526;28;20110;-87
2022/03/31 11:16:51;;;;;;;7.78;5.60;;;15.20;1.00;;;;;;5011707;28;20458;-87
2022/03/31 11:19:19;;;;;;;7.45;5.90;;;14.50;1.00;;;;;;5012986;28;20060;-89
2022/03/31 11:21:46;;;;;;;9.40;5.60;;;14.00;1.00;;;;;;5011803;28;20026;-86
2022/03/31 11:24:13;;;;;;;8.68;5.82;;;13.30;1.00;;;;;;5012324;28;20030;-88
2022/03/31 11:26:43;;;;;;;8.80;6.22;;;12.80;1.00;;;;;;5012615;28;20057;-87
2022/03/31 11:29:14;;;;;;;11.32;5.93;;;12.60;1.00;;;;;;5012303;28;20093;-87
2022/03/31 11:31:52;;;;;;;7.60;5.85;;;12.60;1.00;;;;;;5013136;28;20118;-87
2022/03/31 11:34:23;;;;;;;10.30;5.95;;;12.70;1.00;;;;;;5011902;28;20124;-86
2022/03/31 11:36:50;;;;;;;8.32;6.15;;;12.60;1.00;;;;;;5008925;28;20033;-87
2022/03/31 11:39:18;;;;;;;11.05;6.10;;;12.70;1.00;;;;;;5012251;28;20040;-87
2022/03/31 11:41:45;;;;;;;7.88;5.75;;;12.60;1.00;;;;;;5012281;28;20406;-86
2022/03/31 11:44:11;;;;;;;9.10;5.80;;;12.60;1.00;;;;;;5012284;28;20041;-86
2022/03/31 11:46:45;;;;;;;11.90;6.82;;;12.80;1.00;;;;;;5011252;28;20033;-86
2022/03/31 11:49:25;;;;;;;10.23;6.43;;;13.00;1.00;;;;;;5011743;28;20364;-86
2022/03/31 11:51:59;;;;;;;7.38;6.03;;;13.30;1.00;;;;;;5008710;28;20030;-87
2022/03/31 11:54:27;;;;;;;7.85;5.72;;;13.20;1.00;;;;;;5010397;28;20034;-86
2022/03/31 11:57:10;;;;;;;10.57;6.00;;;13.40;1.00;;;;;;5012293;28;20029;-86
2022/03/31 11:59:36;;;;;;;8.52;5.50;;;13.60;1.00;;;;;;5011282;28;20030;-86
2022/03/31 12:02:12;;;;;;;7.85;5.40;;;13.50;1.00;;;;;;5012433;28;20514;-86
2022/03/31 12:04:38;;;;;;;5.00;3.25;;;13.70;1.00;;;;;;5011677;28;20101;-86
2022/03/31 12:07:04;;;;;;;4.97;3.33;;;13.50;1.00;;;;;;5012028;28;20153;-86
2022/03/31 12:09:30;;;;;;;5.03;3.80;;;13.40;1.00;;;;;;5012708;28;20037;-87
2022/03/31 12:11:57;;;;;;;4.47;3.30;;;13.30;1.00;;;;;;5011880;28;20084;-86
2022/03/31 12:14:28;;;;;;;5.00;3.28;;;13.40;1.00;;;;;;5011863;28;20022;-86
2022/03/31 12:16:55;;;;;;;4.32;3.35;;;13.50;1.00;;;;;;5012229;28;20438;-86
2022/03/31 12:19:21;;;;;;;3.67;3.28;;;13.50;1.00;;;;;;4996368;28;20030;-86
2022/03/31 12:21:48;;;;;;;3.83;3.47;;;13.30;1.00;;;;;;5012454;28;20026;-86
2022/03/31 12:24:14;;;;;;;4.20;3.70;;;13.20;1.00;;;;;;5010319;28;20042;-86
2022/03/31 12:26:56;;;;;;;4.85;3.88;;;13.20;1.00;;;;;;5012423;28;20053;-86
2022/03/31 12:29:27;;;;;;;3.83;3.40;;;12.90;1.00;;;;;;5012249;28;20498;-87
2022/03/31 12:32:14;;;;;;;5.47;3.88;;;12.90;1.00;;;;;;5011580;28;20029;-87
2022/03/31 12:34:53;;;;;;;4.90;4.00;;;12.70;1.00;;;;;;4997139;28;20053;-87
2022/03/31 12:37:33;;;;;;;5.25;4.10;;;12.70;1.00;;;;;;5011739;28;20018;-86
2022/03/31 12:40:00;;;;;;;4.70;4.00;;;12.40;1.00;;;;;;5009511;28;20033;-86
2022/03/31 12:42:26;;;;;;;7.45;4.32;;;12.40;1.00;;;;;;5010969;28;20398;-86
2022/03/31 12:44:51;;;;;;;4.07;3.58;;;12.30;1.00;;;;;;5011584;28;20041;-86
2022/03/31 12:47:21;;;;;;;4.10;3.67;;;12.30;1.00;;;;;;5011784;28;20026;-87